Terminal Aerodrome Forecast
Issued by NWS Cleveland, OH

Home | Current Version | Previous Version | Graphics & Text | Print | Product List | Glossary Off
Versions: 1 2 3 4 5 6 7 8 9 10 11 12 13 14 15 16 17 18 19 20 21 22 23 24 25 26 27

000
FTUS41 KCLE 031738
TAFCLE
TAF
KCLE 031738Z 0318/0424 01010KT P6SM SCT030
     FM032100 03010KT P6SM BKN030
     FM040000 05004KT P6SM BKN035
      TEMPO 0410/0412 5SM BR BKN025
     FM041500 20007KT P6SM BKN035=

USA.gov is the U.S. government's official web portal to all federal, state and local government web resources and services.